createdAt,value
2023-02-24T00:15:34.972Z,5.95
2023-02-24T00:31:17.816Z,5.93
2023-02-24T00:47:00.531Z,5.86
2023-02-24T01:02:42.889Z,5.78
2023-02-24T01:18:25.473Z,5.64
2023-02-24T01:34:08.069Z,5.08
2023-02-24T01:49:51.262Z,4.71
2023-02-24T02:05:34.178Z,4.42
2023-02-24T02:21:16.473Z,4.04
2023-02-24T02:36:59.120Z,3.73
2023-02-24T02:52:41.166Z,3.49
2023-02-24T03:08:23.710Z,3.26
2023-02-24T03:24:06.333Z,3.11
2023-02-24T03:39:49.349Z,2.96
2023-02-24T03:55:31.698Z,2.85
2023-02-24T04:11:13.962Z,2.79
2023-02-24T04:26:56.628Z,2.74
2023-02-24T04:58:22.748Z,2.73
2023-02-24T05:14:05.500Z,2.71
2023-02-24T05:45:31.165Z,2.7
2023-02-24T06:01:13.845Z,2.67
2023-02-24T06:16:56.083Z,2.75
2023-02-24T06:32:39.029Z,2.83
2023-02-24T06:48:21.427Z,2.95
2023-02-24T07:04:04.361Z,3.12
2023-02-24T07:19:47.370Z,3.32
2023-02-24T07:35:29.743Z,3.39
2023-02-24T07:51:12.468Z,3.44
2023-02-24T08:22:37.832Z,3.67
2023-02-24T08:38:20.659Z,3.75
2023-02-24T09:25:29.069Z,4.6
2023-02-24T09:41:12.137Z,4.67
2023-02-24T10:28:19.262Z,4.88
2023-02-24T10:44:02.211Z,5.08
2023-02-24T11:15:27.229Z,4.9
2023-02-24T11:46:53.333Z,3.57
2023-02-24T12:02:35.904Z,3.05
2023-02-24T12:18:18.330Z,2.76
2023-02-24T12:34:00.580Z,2.53
2023-02-24T12:49:42.786Z,2.49
2023-02-24T13:05:25.016Z,2.28
2023-02-24T13:21:08.125Z,2.29
2023-02-24T13:36:51.279Z,2.19
2023-02-24T13:52:33.784Z,2.15
2023-02-24T14:08:16.892Z,2.01
2023-02-24T14:23:59.081Z,2.11
2023-02-24T14:39:42.342Z,2.09
2023-02-24T14:55:25.073Z,2.03
2023-02-24T15:11:07.737Z,2.03
2023-02-24T16:49:12.571Z,1.86
2023-02-24T17:04:54.930Z,1.95
2023-02-24T17:20:38.024Z,2.03
2023-02-24T17:21:25.447Z,2.19
2023-02-24T17:52:50.873Z,2.18
2023-02-24T18:08:33.742Z,2.26
2023-02-24T18:24:16.755Z,2.27
2023-02-24T18:39:59.906Z,2.35
2023-02-24T18:55:42.758Z,2.4
2023-02-24T19:11:24.993Z,2.48
2023-02-24T19:27:07.853Z,2.56
2023-02-24T19:42:50.585Z,2.63
2023-02-24T19:58:33.205Z,2.67
2023-02-24T20:14:15.423Z,2.72
2023-02-24T21:01:23.861Z,2.82
2023-02-24T21:17:06.656Z,2.87
2023-02-24T21:32:48.907Z,2.9
2023-02-24T21:48:31.901Z,2.91
2023-02-24T22:04:14.676Z,2.99
2023-02-24T22:19:57.415Z,3.11
2023-02-24T22:35:39.914Z,3.18
2023-02-24T22:51:22.516Z,3.29
2023-02-24T23:22:47.356Z,3.33
2023-02-24T23:38:30.149Z,3.4
2023-02-24T23:54:26.930Z,3.41
